createdAt,value
2023-04-28T00:05:01.575Z,5.58
2023-04-28T00:15:01.892Z,5.36
2023-04-28T00:25:02.557Z,5.44
2023-04-28T00:35:02.833Z,5.34
2023-04-28T00:45:03.050Z,4.29
2023-04-28T00:55:03.675Z,5.03
2023-04-28T01:05:03.739Z,5.09
2023-04-28T01:15:04.240Z,5.31
2023-04-28T01:25:04.435Z,5.10
2023-04-28T01:35:04.888Z,5.23
2023-04-28T01:45:05.018Z,5.18
2023-04-28T01:55:05.289Z,5.02
2023-04-28T02:05:05.946Z,4.75
2023-04-28T02:15:06.189Z,4.84
2023-04-28T02:25:06.541Z,4.43
2023-04-28T02:35:06.549Z,4.01
2023-04-28T02:55:07.313Z,3.94
2023-04-28T03:05:07.336Z,3.81
2023-04-28T03:15:07.844Z,3.64
2023-04-28T03:25:07.838Z,3.91
2023-04-28T03:35:08.047Z,3.59
2023-04-28T03:45:08.376Z,3.82
2023-04-28T03:55:08.680Z,3.76
2023-04-28T04:05:08.935Z,4.03
2023-04-28T04:15:08.964Z,4.38
2023-04-28T04:25:09.179Z,4.53
2023-04-28T04:35:09.480Z,4.67
2023-04-28T04:45:10.061Z,4.93
2023-04-28T04:55:10.102Z,5.23
2023-04-28T05:05:20.652Z,5.59
2023-04-28T05:25:11.219Z,8.97
2023-04-28T05:35:11.707Z,10.20
2023-04-28T05:45:12.352Z,10.64
2023-04-28T05:55:13.026Z,10.91
2023-04-28T06:05:14.441Z,11.87
2023-04-28T06:15:14.786Z,11.98
2023-04-28T06:25:15.790Z,10.90
2023-04-28T06:35:16.652Z,10.91
2023-04-28T06:45:17.561Z,11.34
2023-04-28T06:55:18.588Z,11.84
2023-04-28T07:05:19.478Z,12.13
2023-04-28T07:15:20.243Z,13.30
2023-04-28T07:25:21.372Z,13.11
2023-04-28T07:35:22.462Z,12.49
2023-04-28T07:45:23.648Z,12.83
2023-04-28T07:55:24.668Z,13.75
2023-04-28T08:05:25.921Z,13.53
2023-04-28T08:15:27.269Z,16.31
2023-04-28T08:25:28.275Z,16.20
2023-04-28T08:35:29.363Z,16.02
2023-04-28T08:45:30.644Z,15.92
2023-04-28T08:55:31.919Z,16.15
2023-04-28T09:05:33.464Z,16.13
2023-04-28T09:15:34.376Z,16.27
2023-04-28T09:25:35.557Z,15.57
2023-04-28T09:35:36.804Z,15.75
2023-04-28T09:45:38.062Z,16.12
2023-04-28T09:55:39.047Z,15.64
2023-04-28T10:05:40.235Z,15.98
2023-04-28T10:15:41.520Z,15.42
2023-04-28T10:25:42.396Z,16.28
2023-04-28T10:35:43.501Z,16.07
2023-04-28T10:45:44.953Z,15.85
2023-04-28T10:55:45.842Z,16.12
2023-04-28T11:05:46.832Z,16.06
2023-04-28T11:15:47.999Z,16.25
2023-04-28T11:25:49.154Z,16.14
2023-04-28T11:35:50.376Z,15.89
2023-04-28T11:45:51.484Z,16.29
2023-04-28T11:55:52.514Z,15.81
2023-04-28T12:05:53.670Z,16.43
2023-04-28T12:15:54.587Z,16.69
2023-04-28T12:25:55.644Z,16.25
2023-04-28T12:35:56.778Z,16.34
2023-04-28T12:45:57.883Z,16.49
2023-04-28T12:55:59.298Z,16.37
2023-04-28T13:06:00.181Z,16.38
2023-04-28T13:16:01.425Z,16.38
2023-04-28T13:26:02.530Z,16.59
2023-04-28T13:36:03.717Z,16.28
2023-04-28T13:46:04.867Z,16.50
2023-04-28T13:56:06.212Z,16.29
2023-04-28T14:06:07.390Z,16.33
2023-04-28T14:16:08.361Z,16.47
2023-04-28T14:26:09.486Z,16.30
2023-04-28T14:36:10.698Z,16.46
2023-04-28T14:46:11.994Z,16.05
2023-04-28T14:56:19.072Z,16.22
2023-04-28T15:06:14.592Z,16.19
2023-04-28T15:16:15.636Z,16.27
2023-04-28T15:26:16.677Z,16.21
2023-04-28T15:36:17.882Z,16.31
2023-04-28T15:46:19.108Z,16.18
2023-04-28T15:56:20.209Z,16.18
2023-04-28T16:06:21.426Z,16.16
2023-04-28T16:16:22.695Z,16.10
2023-04-28T16:26:23.882Z,16.06
2023-04-28T16:36:25.075Z,16.03
2023-04-28T16:46:26.335Z,16.03
2023-04-28T16:56:27.786Z,15.95
2023-04-28T17:06:28.981Z,15.94
2023-04-28T17:16:30.174Z,15.85
2023-04-28T17:26:31.049Z,15.82
2023-04-28T17:36:32.357Z,15.79
2023-04-28T17:46:33.443Z,15.69
2023-04-28T17:56:34.670Z,15.66
2023-04-28T18:06:35.933Z,15.55
2023-04-28T18:16:37.103Z,15.61
2023-04-28T18:26:38.283Z,15.56
2023-04-28T18:36:39.415Z,15.35
2023-04-28T18:46:40.838Z,15.22
2023-04-28T18:56:42.052Z,15.22
2023-04-28T19:06:43.262Z,15.05
2023-04-28T19:16:44.323Z,14.80
2023-04-28T19:26:45.535Z,14.67
2023-04-28T19:46:47.807Z,14.46
2023-04-28T19:56:48.868Z,14.41
2023-04-28T20:06:50.012Z,13.88
2023-04-28T20:16:51.110Z,13.79
2023-04-28T20:26:51.861Z,13.79
2023-04-28T20:36:52.992Z,13.64
2023-04-28T20:46:54.142Z,13.66
2023-04-28T20:56:55.035Z,13.84
2023-04-28T21:06:55.874Z,13.86
2023-04-28T21:16:56.971Z,13.62
2023-04-28T21:26:58.022Z,13.58
2023-04-28T21:36:58.850Z,13.63
2023-04-28T21:46:59.845Z,13.57
2023-04-28T21:57:00.847Z,13.55
2023-04-28T22:07:01.846Z,13.22
2023-04-28T22:17:02.766Z,13.30
2023-04-28T22:27:03.726Z,13.00
2023-04-28T22:37:04.683Z,12.89
2023-04-28T22:57:06.675Z,12.52
2023-04-28T23:07:07.515Z,12.76
2023-04-28T23:17:08.418Z,12.74
2023-04-28T23:27:09.277Z,12.44
2023-04-28T23:37:10.175Z,12.34
2023-04-28T23:47:11.134Z,12.05
2023-04-28T23:57:11.974Z,12.02
